Time;durP1;ratioP1;P1;durP2;ratioP2;P2;SDS_P1;SDS_P2;PMS_P1;PMS_P2;Temp;Humidity;BMP_temperature;BMP_pressure;BME280_temperature;BME280_humidity;BME280_pressure;Samples;Min_cycle;Max_cycle;Signal;HPM_P1;HPM_P2
2023/02/05 00:01:59;;;;;;;25.85;11.90;;;;;;;8.36;100.00;103567.13;4719242;30;20056;-68
2023/02/05 00:04:26;;;;;;;25.17;12.18;;;;;;;8.36;100.00;103564.41;4703085;30;20057;-69
2023/02/05 00:06:55;;;;;;;26.55;12.70;;;;;;;8.36;100.00;103566.28;4716573;30;20055;-68
2023/02/05 00:09:23;;;;;;;26.75;12.88;;;;;;;8.36;100.00;103580.72;4718641;30;20052;-66
2023/02/05 00:11:50;;;;;;;29.05;14.07;;;;;;;8.37;100.00;103565.25;4729871;30;20049;-66
2023/02/05 00:14:18;;;;;;;28.70;13.63;;;;;;;8.36;100.00;103572.56;4696858;30;20471;-67
2023/02/05 00:16:46;;;;;;;30.48;14.88;;;;;;;8.36;100.00;103556.25;4720006;30;20061;-67
2023/02/05 00:19:14;;;;;;;30.67;16.20;;;;;;;8.37;100.00;103549.81;4701697;30;20045;-64
2023/02/05 00:21:43;;;;;;;30.48;17.02;;;;;;;8.36;100.00;103539.97;4734043;30;20064;-65
2023/02/05 00:24:11;;;;;;;34.22;18.25;;;;;;;8.36;100.00;103552.72;4696643;30;20057;-67
2023/02/05 00:26:40;;;;;;;35.00;18.60;;;;;;;8.34;100.00;103536.59;4707386;30;20084;-67
2023/02/05 00:29:08;;;;;;;32.25;19.00;;;;;;;8.35;100.00;103530.16;4706437;30;20533;-68
2023/02/05 00:31:36;;;;;;;36.28;19.75;;;;;;;8.36;100.00;103529.09;4721514;30;20126;-67
2023/02/05 00:34:04;;;;;;;36.85;19.77;;;;;;;8.36;100.00;103518.22;4719930;30;20061;-68
2023/02/05 00:36:32;;;;;;;35.35;20.42;;;;;;;8.33;100.00;103511.31;4704934;30;20419;-69
2023/02/05 00:38:59;;;;;;;35.85;21.02;;;;;;;8.33;100.00;103513.19;4718637;30;20084;-69
2023/02/05 00:41:31;;;;;;;33.58;19.85;;;;;;;8.32;100.00;103519.63;4720381;30;20053;-68
2023/02/05 00:43:59;;;;;;;39.70;22.30;;;;;;;8.33;100.00;103518.63;4702156;30;20053;-68
2023/02/05 00:46:26;;;;;;;33.47;20.42;;;;;;;8.32;100.00;103514.19;4708921;30;20486;-68
2023/02/05 00:48:54;;;;;;;37.00;21.27;;;;;;;8.35;100.00;103516.56;4704342;30;20268;-67
2023/02/05 00:51:22;;;;;;;37.92;23.42;;;;;;;8.36;100.00;103517.41;4704441;30;20074;-67
2023/02/05 00:53:50;;;;;;;39.35;23.60;;;;;;;8.36;100.00;103501.94;4705505;30;20442;-67
2023/02/05 00:56:17;;;;;;;39.42;24.75;;;;;;;8.35;100.00;103496.72;4704753;30;20470;-68
2023/02/05 00:58:47;;;;;;;38.40;24.08;;;;;;;8.33;100.00;103503.16;4719417;30;20052;-68
2023/02/05 01:01:15;;;;;;;38.20;25.38;;;;;;;8.34;100.00;103501.28;4704954;30;20056;-68
2023/02/05 01:03:43;;;;;;;38.90;25.83;;;;;;;8.31;100.00;103507.91;4705920;30;20065;-68
2023/02/05 01:06:12;;;;;;;39.60;26.65;;;;;;;8.31;100.00;103507.09;4721278;30;20056;-67
2023/02/05 01:08:39;;;;;;;37.83;26.27;;;;;;;8.30;100.00;103519.84;4719028;30;20053;-67
2023/02/05 01:11:10;;;;;;;40.80;27.60;;;;;;;8.31;100.00;103526.94;4720835;30;20142;-68
2023/02/05 01:13:38;;;;;;;39.13;27.40;;;;;;;8.30;100.00;103502.69;4704868;30;20057;-68
2023/02/05 01:16:09;;;;;;;38.38;25.95;;;;;;;8.30;100.00;103508.13;4705307;30;20057;-68
2023/02/05 01:18:37;;;;;;;38.60;27.17;;;;;;;8.31;100.00;103501.66;4705212;30;20064;-69
2023/02/05 01:21:05;;;;;;;36.88;26.67;;;;;;;8.29;100.00;103501.00;4720483;30;20125;-68
2023/02/05 01:23:32;;;;;;;37.85;28.23;;;;;;;8.29;100.00;103511.84;4706538;30;20581;-68
2023/02/05 01:26:00;;;;;;;41.97;28.23;;;;;;;8.28;100.00;103521.06;4705764;30;20060;-68
2023/02/05 01:28:28;;;;;;;39.47;28.25;;;;;;;8.27;100.00;103522.06;4705917;30;20061;-67
2023/02/05 01:30:55;;;;;;;39.53;28.35;;;;;;;8.25;100.00;103515.97;4690799;30;20060;-68
2023/02/05 01:33:23;;;;;;;39.67;28.75;;;;;;;8.24;100.00;103522.44;4720123;30;20052;-68
2023/02/05 01:35:51;;;;;;;39.15;28.52;;;;;;;8.22;100.00;103516.34;4705379;30;20065;-69
2023/02/05 01:38:19;;;;;;;40.33;27.77;;;;;;;8.20;100.00;103523.84;4677619;30;20061;-68
2023/02/05 01:40:46;;;;;;;39.28;27.30;;;;;;;8.18;100.00;103526.75;4704393;30;20091;-68
2023/02/05 01:43:15;;;;;;;36.70;26.98;;;;;;;8.18;100.00;103523.16;4720003;30;20112;-68
2023/02/05 01:46:04;;;;;;;38.33;26.67;;;;;;;8.17;100.00;103522.34;4689840;30;20061;-67
2023/02/05 01:48:42;;;;;;;37.88;26.55;;;;;;;8.15;100.00;103523.53;4719266;30;20073;-68
2023/02/05 01:51:11;;;;;;;38.90;26.63;;;;;;;8.13;100.00;103523.75;4718860;30;20053;-68
2023/02/05 01:53:40;;;;;;;33.13;24.88;;;;;;;8.11;100.00;103513.06;4691296;30;20060;-68
2023/02/05 01:56:17;;;;;;;36.65;25.00;;;;;;;8.14;100.00;103524.59;4720152;30;20057;-68
2023/02/05 01:58:54;;;;;;;33.22;23.90;;;;;;;8.17;100.00;103521.50;4677605;30;20494;-68
2023/02/05 02:01:24;;;;;;;30.35;22.85;;;;;;;8.17;100.00;103530.47;4717777;30;20049;-68
2023/02/05 02:03:54;;;;;;;32.45;23.50;;;;;;;8.17;100.00;103518.78;4720201;30;20057;-68
2023/02/05 02:06:22;;;;;;;32.28;23.00;;;;;;;8.17;100.00;103518.78;4702520;30;20404;-68
2023/02/05 02:08:50;;;;;;;30.63;23.00;;;;;;;8.17;100.00;103519.63;4704555;30;20085;-67
2023/02/05 02:11:19;;;;;;;33.95;23.38;;;;;;;8.18;100.00;103515.03;4721769;30;20116;-69
2023/02/05 02:13:48;;;;;;;30.48;22.25;;;;;;;8.16;100.00;103507.09;4716356;30;20067;-68
2023/02/05 02:16:16;;;;;;;30.33;21.75;;;;;;;8.19;100.00;103500.44;4720008;30;20065;-68
2023/02/05 02:18:44;;;;;;;29.40;21.55;;;;;;;8.19;100.00;103503.16;4693183;30;20060;-68
2023/02/05 02:21:25;;;;;;;30.98;22.52;;;;;;;8.19;100.00;103516.72;4705043;30;20053;-67
2023/02/05 02:24:02;;;;;;;30.23;22.00;;;;;;;8.19;100.00;103522.16;4701172;30;20056;-67
2023/02/05 02:26:38;;;;;;;28.98;22.40;;;;;;;8.16;100.00;103511.69;4714595;30;20427;-67
2023/02/05 02:29:06;;;;;;;;;;;;;;;8.16;100.00;103511.69;4704076;30;20049;-67
2023/02/05 02:31:50;;;;;;;31.00;22.45;;;;;;;8.13;100.00;103495.72;4718040;30;19927;-67
2023/02/05 02:34:27;;;;;;;28.00;21.40;;;;;;;8.13;100.00;103496.59;4690499;30;20407;-67
2023/02/05 02:37:06;;;;;;;29.55;20.92;;;;;;;8.11;100.00;103483.19;4689943;30;20495;-68
2023/02/05 02:39:52;;;;;;;29.95;20.63;;;;;;;8.11;100.00;103485.91;4705628;30;20053;-67
2023/02/05 02:42:33;;;;;;;29.33;21.03;;;;;;;8.10;100.00;103481.53;4716122;30;20084;-68
2023/02/05 02:45:06;;;;;;;27.20;20.38;;;;;;;8.11;100.00;103483.19;4704578;30;20319;-68
2023/02/05 02:47:46;;;;;;;26.23;19.50;;;;;;;8.10;100.00;103473.38;4691630;30;20569;-68
2023/02/05 02:50:25;;;;;;;27.42;20.23;;;;;;;8.10;100.00;103473.38;4678233;30;20063;-67
2023/02/05 02:52:55;;;;;;;28.23;20.52;;;;;;;8.09;100.00;103468.97;4693395;30;20068;-68
2023/02/05 02:55:24;;;;;;;27.38;21.92;;;;;;;8.08;100.00;103485.41;4707723;30;20057;-67
2023/02/05 02:57:52;;;;;;;27.70;20.75;;;;;;;8.05;100.00;103489.34;4720795;30;20119;-68
2023/02/05 03:00:24;;;;;;;28.85;20.73;;;;;;;8.04;100.00;103482.25;4720648;30;20113;-68
2023/02/05 03:02:56;;;;;;;24.10;19.17;;;;;;;8.03;100.00;103482.41;4705629;30;20572;-68
2023/02/05 03:05:26;;;;;;;26.15;19.80;;;;;;;8.03;100.00;103480.56;4720927;30;20049;-68
2023/02/05 03:08:01;;;;;;;28.70;19.02;;;;;;;8.04;100.00;103474.09;4704442;30;20053;-68
2023/02/05 03:10:46;;;;;;;25.55;18.92;;;;;;;8.03;100.00;103467.00;4720374;30;20061;-70
2023/02/05 03:13:14;;;;;;;25.42;18.60;;;;;;;8.02;100.00;103456.31;4704643;30;20507;-68
2023/02/05 03:15:48;;;;;;;23.63;18.60;;;;;;;8.03;100.00;103460.69;4719167;30;20127;-67
2023/02/05 03:18:17;;;;;;;27.58;19.30;;;;;;;8.03;100.00;103458.00;4718589;30;20057;-68
2023/02/05 03:20:58;;;;;;;24.77;18.38;;;;;;;8.04;100.00;103457.81;4721133;30;20060;-68
2023/02/05 03:23:27;;;;;;;25.13;17.88;;;;;;;8.04;100.00;103455.09;4705197;30;20064;-68
2023/02/05 03:25:55;;;;;;;26.10;18.75;;;;;;;8.04;100.00;103448.84;4720828;30;20052;-68
2023/02/05 03:28:33;;;;;;;22.80;17.65;;;;;;;8.04;100.00;103441.53;4718185;30;20060;-68
2023/02/05 03:31:12;;;;;;;24.13;17.05;;;;;;;8.03;100.00;103441.69;4718041;30;20410;-66
2023/02/05 03:34:28;;;;;;;23.40;17.35;;;;;;;8.01;100.00;103444.63;4716369;30;20057;-67
2023/02/05 03:37:17;;;;;;;25.33;17.95;;;;;;;8.02;100.00;103473.44;4720932;30;20103;-68
2023/02/05 03:40:06;;;;;;;22.23;17.88;;;;;;;8.01;100.00;103485.34;4718471;30;20056;-68
2023/02/05 03:42:54;;;;;;;25.85;17.67;;;;;;;7.98;100.00;103482.97;4704427;30;20503;-68
2023/02/05 03:45:26;;;;;;;21.55;16.48;;;;;;;7.96;100.00;103484.19;4705831;30;20088;-68
2023/02/05 03:47:58;;;;;;;23.02;17.00;;;;;;;7.94;100.00;103486.25;4719307;30;20057;-68
2023/02/05 03:50:30;;;;;;;21.55;15.38;;;;;;;7.93;100.00;103487.28;4713380;30;20132;-68
2023/02/05 03:53:34;;;;;;;24.63;16.85;;;;;;;7.92;100.00;103483.72;4706445;30;20046;-69
2023/02/05 03:56:08;;;;;;;22.10;15.93;;;;;;;7.91;100.00;103484.75;4726093;30;20037;-65
2023/02/05 03:58:42;;;;;;;21.70;15.98;;;;;;;7.90;100.00;103492.06;4740086;30;20057;-66
2023/02/05 04:01:11;;;;;;;21.85;16.65;;;;;;;7.87;100.00;103487.00;4713833;30;20065;-67
2023/02/05 04:03:41;;;;;;;19.83;15.07;;;;;;;7.85;100.00;103497.19;4716127;30;20045;-67
2023/02/05 04:06:10;;;;;;;22.48;15.45;;;;;;;7.84;100.00;103483.78;4724500;30;20056;-66
2023/02/05 04:08:38;;;;;;;21.75;15.60;;;;;;;7.82;100.00;103494.03;4732110;30;20064;-67
2023/02/05 04:11:06;;;;;;;22.10;14.07;;;;;;;7.82;100.00;103491.31;4729365;30;20072;-67
2023/02/05 04:13:34;;;;;;;21.40;14.25;;;;;;;7.82;100.00;103499.44;4731949;30;20072;-67
2023/02/05 04:16:03;;;;;;;18.27;13.40;;;;;;;7.82;100.00;103499.44;4731495;30;20061;-67
2023/02/05 04:18:34;;;;;;;21.67;13.80;;;;;;;7.83;100.00;103503.84;4728728;30;20076;-68
2023/02/05 04:21:02;;;;;;;18.85;13.18;;;;;;;7.84;100.00;103502.78;4698491;30;20081;-68
2023/02/05 04:23:31;;;;;;;19.73;12.85;;;;;;;7.83;100.00;103499.25;4723744;30;20211;-68
2023/02/05 04:26:00;;;;;;;17.00;12.05;;;;;;;7.85;100.00;103496.34;4695707;30;20084;-68
2023/02/05 04:28:34;;;;;;;18.88;12.55;;;;;;;7.84;100.00;103498.22;4725099;30;20500;-68
2023/02/05 04:31:08;;;;;;;18.02;11.68;;;;;;;7.84;100.00;103495.53;4692579;30;20096;-67
2023/02/05 04:33:38;;;;;;;16.45;11.32;;;;;;;7.84;100.00;103481.94;4710423;30;20049;-68
2023/02/05 04:36:07;;;;;;;19.85;11.98;;;;;;;7.85;100.00;103486.34;4725512;30;20087;-68
2023/02/05 04:38:35;;;;;;;21.02;11.57;;;;;;;7.85;100.00;103482.78;4711045;30;20499;-67
2023/02/05 04:41:03;;;;;;;14.18;10.15;;;;;;;7.85;100.00;103477.34;4707640;30;20041;-68
2023/02/05 04:43:31;;;;;;;17.25;10.50;;;;;;;7.83;100.00;103479.41;4709310;30;20140;-68
2023/02/05 04:46:04;;;;;;;15.50;9.88;;;;;;;7.83;100.00;103474.81;4708589;30;20059;-68
2023/02/05 04:48:32;;;;;;;16.17;10.70;;;;;;;7.82;100.00;103473.16;4721053;30;20059;-68
2023/02/05 04:51:08;;;;;;;18.42;10.00;;;;;;;7.82;100.00;103477.72;4723301;30;20129;-68
2023/02/05 04:53:36;;;;;;;15.65;9.35;;;;;;;7.80;100.00;103485.22;4707679;30;20516;-68
2023/02/05 04:56:05;;;;;;;19.05;9.63;;;;;;;7.81;100.00;103470.59;4709358;30;20131;-67
2023/02/05 04:58:33;;;;;;;14.70;8.63;;;;;;;7.81;100.00;103470.59;4723592;30;20076;-68
2023/02/05 05:01:01;;;;;;;14.50;8.25;;;;;;;7.79;100.00;103478.94;4710190;30;20125;-69
2023/02/05 05:03:29;;;;;;;16.33;9.02;;;;;;;7.81;100.00;103486.88;4723899;30;20136;-69
2023/02/05 05:06:01;;;;;;;14.48;8.27;;;;;;;7.81;100.00;103489.59;4725278;30;20088;-68
2023/02/05 05:08:29;;;;;;;13.93;8.02;;;;;;;7.82;100.00;103472.31;4723009;30;20056;-68
2023/02/05 05:10:57;;;;;;;15.82;7.75;;;;;;;7.82;100.00;103475.00;4721626;30;20075;-69
2023/02/05 05:13:24;;;;;;;14.20;7.60;;;;;;;7.81;100.00;103476.03;4705078;30;20478;-68
2023/02/05 05:15:56;;;;;;;13.13;7.45;;;;;;;7.79;100.00;103484.38;4704953;30;20127;-67
2023/02/05 05:18:24;;;;;;;14.30;7.70;;;;;;;7.77;100.00;103482.84;4705130;30;20403;-69
2023/02/05 05:20:52;;;;;;;12.73;7.43;;;;;;;7.72;100.00;103486.13;4720032;30;20103;-69
2023/02/05 05:23:19;;;;;;;12.82;7.72;;;;;;;7.72;100.00;103490.69;4690707;30;20133;-70
2023/02/05 05:25:48;;;;;;;14.75;8.10;;;;;;;7.71;100.00;103475.44;4719760;30;20484;-68
2023/02/05 05:28:17;;;;;;;12.25;6.95;;;;;;;7.72;100.00;103487.97;4719326;30;20531;-68
2023/02/05 05:30:46;;;;;;;12.85;7.70;;;;;;;7.73;100.00;103478.84;4705360;30;20045;-68
2023/02/05 05:33:14;;;;;;;12.13;7.90;;;;;;;7.71;100.00;103475.44;4718169;30;20057;-68
2023/02/05 05:35:41;;;;;;;14.43;7.85;;;;;;;7.71;100.00;103472.75;4719346;30;20057;-68
2023/02/05 05:38:09;;;;;;;14.90;8.20;;;;;;;7.70;100.00;103474.63;4717156;30;20053;-68
2023/02/05 05:46:09;;;;;;;14.55;7.80;;;;;;;7.67;100.00;103464.09;4702539;30;20059;-68
2023/02/05 05:48:36;;;;;;;13.02;7.43;;;;;;;7.66;100.00;103463.25;4697342;30;20071;-68
2023/02/05 05:51:04;;;;;;;14.57;7.65;;;;;;;7.66;100.00;103463.25;4704089;30;20053;-68
2023/02/05 05:53:33;;;;;;;13.55;7.53;;;;;;;7.65;100.00;103464.31;4718836;30;20414;-68
2023/02/05 05:56:00;;;;;;;13.93;7.43;;;;;;;7.64;100.00;103467.19;4719115;30;20068;-68
2023/02/05 05:58:28;;;;;;;15.65;8.30;;;;;;;7.62;100.00;103461.94;4718205;30;20375;-68
2023/02/05 06:00:56;;;;;;;15.07;7.82;;;;;;;7.61;100.00;103465.69;4718729;30;20495;-68
2023/02/05 06:03:24;;;;;;;13.07;7.82;;;;;;;7.60;100.00;103455.00;4718671;30;20499;-68
2023/02/05 06:05:52;;;;;;;17.63;8.55;;;;;;;7.58;100.00;103452.50;4719339;30;20119;-67
2023/02/05 06:08:19;;;;;;;17.05;6.97;;;;;;;7.56;100.00;103459.97;4717284;30;20065;-68
2023/02/05 06:10:47;;;;;;;12.98;6.95;;;;;;;7.55;100.00;103450.16;4717809;30;20093;-68
2023/02/05 06:13:15;;;;;;;11.93;6.97;;;;;;;7.58;100.00;103454.38;4719436;30;20079;-69
2023/02/05 06:15:43;;;;;;;14.40;7.03;;;;;;;7.49;100.00;103450.88;4719522;30;20053;-68
2023/02/05 06:18:11;;;;;;;12.43;6.82;;;;;;;7.42;100.00;103442.63;4719196;30;20089;-69
2023/02/05 06:20:38;;;;;;;10.80;6.35;;;;;;;7.40;100.00;103450.09;4714656;30;20148;-68
2023/02/05 06:23:06;;;;;;;11.38;6.28;;;;;;;7.37;100.00;103452.34;4713071;30;20057;-68
2023/02/05 06:25:34;;;;;;;8.63;4.70;;;;;;;7.36;100.00;103456.06;4703982;30;20119;-68
2023/02/05 06:28:02;;;;;;;8.65;5.10;;;;;;;7.38;100.00;103456.72;4719508;30;20053;-68
2023/02/05 06:30:30;;;;;;;8.68;4.43;;;;;;;7.38;100.00;103459.44;4705254;30;20068;-68
2023/02/05 06:32:57;;;;;;;8.15;4.35;;;;;;;7.38;100.00;103460.28;4719549;30;20053;-67
2023/02/05 06:35:25;;;;;;;8.07;4.05;;;;;;;7.35;100.00;103459.81;4719759;30;20542;-68
2023/02/05 06:37:53;;;;;;;8.18;4.20;;;;;;;7.34;100.00;103474.41;4718651;30;20503;-67
2023/02/05 06:40:24;;;;;;;7.82;3.97;;;;;;;7.35;100.00;103476.09;4720437;30;20119;-68
2023/02/05 06:42:53;;;;;;;6.10;3.13;;;;;;;7.28;100.00;103481.38;4703284;30;20049;-67
2023/02/05 06:45:22;;;;;;;9.35;3.00;;;;;;;7.08;100.00;103508.13;4719052;30;20053;-68
2023/02/05 06:47:55;;;;;;;10.85;3.10;;;;;;;6.93;100.00;103512.63;4718556;30;20091;-67
2023/02/05 06:50:23;;;;;;;9.13;3.03;;;;;;;6.74;100.00;103544.53;4702857;30;20094;-68
2023/02/05 06:52:50;;;;;;;8.85;3.00;;;;;;;6.68;100.00;103534.38;4688694;30;20061;-68
2023/02/05 06:55:18;;;;;;;10.52;3.40;;;;;;;6.68;100.00;103545.22;4719565;30;20067;-67
2023/02/05 06:57:46;;;;;;;10.30;2.90;;;;;;;6.69;100.00;103570.47;4717316;30;20053;-68
2023/02/05 07:00:14;;;;;;;9.52;2.80;;;;;;;6.63;100.00;103550.31;4703177;30;20472;-67
2023/02/05 07:02:42;;;;;;;11.95;2.90;;;;;;;6.60;100.00;103566.94;4717371;30;20057;-68
2023/02/05 07:05:10;;;;;;;10.88;2.88;;;;;;;6.52;100.00;103573.22;4714423;30;20400;-68
2023/02/05 07:07:38;;;;;;;11.38;3.20;;;;;;;6.59;100.00;103578.78;4712136;30;20137;-68
2023/02/05 07:10:06;;;;;;;10.82;2.78;;;;;;;6.51;100.00;103581.50;4712274;30;20419;-67
2023/02/05 07:12:34;;;;;;;9.48;3.05;;;;;;;6.40;100.00;103602.53;4699494;30;20049;-66
2023/02/05 07:15:02;;;;;;;7.78;2.30;;;;;;;6.35;100.00;103594.06;4717590;30;20067;-67
2023/02/05 07:17:29;;;;;;;9.10;2.50;;;;;;;6.28;100.00;103614.72;4716087;30;20053;-68
2023/02/05 07:19:57;;;;;;;7.70;2.80;;;;;;;6.26;100.00;103596.97;4684525;30;20061;-67
2023/02/05 07:22:25;;;;;;;7.35;2.47;;;;;;;6.28;100.00;103608.47;4715053;30;20053;-67
2023/02/05 07:24:53;;;;;;;10.38;2.83;;;;;;;6.34;100.00;103624.88;4717585;30;20045;-66
2023/02/05 07:27:21;;;;;;;9.40;2.53;;;;;;;6.33;100.00;103612.34;4702385;30;20068;-66
2023/02/05 07:29:48;;;;;;;8.88;2.88;;;;;;;6.29;100.00;103632.66;4717473;30;20065;-73
2023/02/05 07:32:16;;;;;;;8.07;2.35;;;;;;;6.23;100.00;103627.94;4702434;30;20065;-66
2023/02/05 07:34:44;;;;;;;10.25;2.85;;;;;;;6.21;100.00;103623.72;4700919;30;20116;-65
2023/02/05 07:37:12;;;;;;;8.82;2.60;;;;;;;6.25;100.00;103634.00;4718645;30;20471;-65
2023/02/05 07:39:39;;;;;;;10.40;2.83;;;;;;;6.22;100.00;103639.75;4720899;30;20458;-65
2023/02/05 07:42:07;;;;;;;11.13;2.90;;;;;;;6.24;100.00;103647.72;4721205;30;20057;-66
2023/02/05 07:44:42;;;;;;;7.50;2.33;;;;;;;6.29;100.00;103651.59;4707763;30;20057;-65
2023/02/05 07:47:10;;;;;;;7.60;2.67;;;;;;;6.33;100.00;103654.84;4716210;30;20451;-67
2023/02/05 07:49:39;;;;;;;10.70;2.92;;;;;;;6.25;100.00;103668.34;4706117;30;20073;-65
2023/02/05 07:52:07;;;;;;;8.90;2.78;;;;;;;6.17;100.00;103669.22;4712048;30;20072;-64
2023/02/05 07:54:35;;;;;;;10.57;3.20;;;;;;;6.13;100.00;103684.09;4715992;30;20115;-66
2023/02/05 07:57:02;;;;;;;9.25;3.00;;;;;;;6.15;100.00;103676.66;4715801;30;20140;-66
2023/02/05 07:59:34;;;;;;;10.65;2.97;;;;;;;5.98;100.00;103687.44;4717379;30;20057;-66
2023/02/05 08:02:02;;;;;;;9.90;2.95;;;;;;;6.00;100.00;103698.13;4718247;30;20136;-65
2023/02/05 08:04:30;;;;;;;10.55;3.05;;;;;;;6.02;100.00;103684.44;4707574;30;20084;-65
2023/02/05 08:06:57;;;;;;;11.98;3.15;;;;;;;6.10;100.00;103692.56;4719928;30;20109;-65
2023/02/05 08:09:25;;;;;;;12.00;3.60;;;;;;;6.16;100.00;103694.59;4725107;30;20057;-65
2023/02/05 08:11:53;;;;;;;7.50;3.03;;;;;;;6.25;100.00;103693.56;4723504;30;20430;-66
2023/02/05 08:14:21;;;;;;;14.77;3.50;;;;;;;6.28;100.00;103693.25;4721886;30;20119;-65
2023/02/05 08:16:49;;;;;;;14.68;3.40;;;;;;;6.29;100.00;103694.94;4690694;30;20085;-65
2023/02/05 08:19:17;;;;;;;12.77;3.63;;;;;;;6.26;100.00;103700.69;4718882;30;20061;-66
2023/02/05 08:21:45;;;;;;;15.68;3.35;;;;;;;6.23;100.00;103682.09;4719170;30;20061;-66
2023/02/05 08:24:12;;;;;;;14.82;3.67;;;;;;;6.25;100.00;103692.72;4720917;30;20067;-68
2023/02/05 08:26:40;;;;;;;17.08;4.13;;;;;;;6.31;100.00;103709.16;4718340;30;20053;-66
2023/02/05 08:29:09;;;;;;;17.08;4.22;;;;;;;6.30;100.00;103690.34;4702602;30;20060;-67
2023/02/05 08:31:37;;;;;;;12.00;3.33;;;;;;;6.32;100.00;103697.28;4718323;30;20065;-67
2023/02/05 08:34:05;;;;;;;14.63;4.43;;;;;;;6.30;100.00;103704.75;4717724;30;20056;-66
2023/02/05 08:36:33;;;;;;;16.73;4.35;;;;;;;6.26;100.00;103703.41;4703079;30;20492;-67
2023/02/05 08:39:00;;;;;;;14.27;4.43;;;;;;;6.29;100.00;103705.75;4718594;30;20360;-66
2023/02/05 08:41:28;;;;;;;21.67;4.43;;;;;;;6.30;100.00;103703.91;4721259;30;20144;-67
2023/02/05 08:43:56;;;;;;;17.02;4.40;;;;;;;6.31;100.00;103706.44;4706187;30;20053;-66
2023/02/05 08:46:24;;;;;;;15.73;4.50;;;;;;;6.36;100.00;103714.06;4721319;30;20404;-66
2023/02/05 08:48:58;;;;;;;17.38;5.00;;;;;;;6.37;100.00;103704.91;4707281;30;20065;-66
2023/02/05 08:51:26;;;;;;;17.45;4.25;;;;;;;6.41;100.00;103706.28;4720414;30;20423;-66
2023/02/05 08:53:55;;;;;;;18.02;4.25;;;;;;;6.44;100.00;103702.38;4702929;30;20065;-66
2023/02/05 08:56:23;;;;;;;19.33;4.65;;;;;;;6.49;100.00;103698.13;4719144;30;20128;-67
2023/02/05 08:58:50;;;;;;;22.65;5.20;;;;;;;6.49;100.00;103710.84;4706391;30;20096;-66
2023/02/05 09:01:18;;;;;;;19.05;4.85;;;;;;;6.48;100.00;103699.16;4720940;30;20098;-66
2023/02/05 09:03:46;;;;;;;22.25;4.90;;;;;;;6.53;100.00;103710.34;4721556;30;20056;-66
2023/02/05 09:06:15;;;;;;;25.67;5.63;;;;;;;6.51;100.00;103712.38;4722176;30;20045;-67
2023/02/05 09:08:44;;;;;;;22.48;5.05;;;;;;;6.49;100.00;103718.97;4721711;30;20081;-66
2023/02/05 09:11:12;;;;;;;24.75;5.90;;;;;;;6.50;100.00;103724.22;4721885;30;20064;-66
2023/02/05 09:13:40;;;;;;;21.83;5.22;;;;;;;6.50;100.00;103717.97;4720568;30;20056;-67
2023/02/05 09:16:10;;;;;;;26.73;6.18;;;;;;;6.49;100.00;103713.56;4721675;30;20053;-66
2023/02/05 09:18:38;;;;;;;22.55;5.50;;;;;;;6.47;100.00;103719.16;4720758;30;20061;-67
2023/02/05 09:21:07;;;;;;;28.42;5.93;;;;;;;6.51;100.00;103703.41;4720404;30;20087;-65
2023/02/05 09:23:36;;;;;;;24.73;6.53;;;;;;;6.49;100.00;103730.66;4721726;30;20503;-66
2023/02/05 09:26:04;;;;;;;26.38;6.13;;;;;;;6.50;100.00;103726.09;4720625;30;20057;-67
2023/02/05 09:28:32;;;;;;;25.63;6.63;;;;;;;6.51;100.00;103733.19;4720383;30;20057;-66
2023/02/05 09:31:10;;;;;;;27.77;6.00;;;;;;;6.50;100.00;103726.94;4720259;30;20061;-66
2023/02/05 09:33:39;;;;;;;28.70;6.75;;;;;;;6.50;100.00;103731.50;4705571;30;20135;-66
2023/02/05 09:36:07;;;;;;;29.40;6.57;;;;;;;6.49;100.00;103718.97;4705867;30;20152;-66
2023/02/05 09:38:36;;;;;;;22.20;5.32;;;;;;;6.52;100.00;103724.06;4721136;30;20060;-66
2023/02/05 09:41:07;;;;;;;28.25;6.40;;;;;;;6.52;100.00;103721.38;4720018;30;20487;-66
2023/02/05 09:43:41;;;;;;;25.63;5.80;;;;;;;6.49;100.00;103746.06;4716786;30;20088;-67
2023/02/05 09:46:48;;;;;;;22.70;6.05;;;;;;;6.49;100.00;103737.94;4673866;30;20234;-66
2023/02/05 09:49:30;;;;;;;26.08;6.18;;;;;;;6.49;100.00;103751.47;4702921;30;20472;-66
2023/02/05 09:52:06;;;;;;;30.67;6.82;;;;;;;6.47;100.00;103756.22;4701273;30;20088;-65
2023/02/05 09:54:40;;;;;;;30.83;6.80;;;;;;;6.51;100.00;103746.75;4688653;30;20067;-65
2023/02/05 09:57:17;;;;;;;29.05;6.82;;;;;;;6.57;100.00;103732.53;4720488;30;20056;-66
2023/02/05 09:59:45;;;;;;;;;;;;;;;6.63;100.00;103731.84;4720417;30;20057;-67
2023/02/05 10:02:30;;;;;;;32.22;7.15;;;;;;;6.68;100.00;103734.88;4705121;30;19926;-66
2023/02/05 10:04:58;;;;;;;31.58;6.47;;;;;;;6.70;100.00;103734.72;4705348;30;20053;-66
2023/02/05 10:07:47;;;;;;;31.65;7.32;;;;;;;6.69;100.00;103730.34;4719486;30;20144;-66
2023/02/05 10:10:21;;;;;;;30.58;6.75;;;;;;;6.72;100.00;103733.53;4703359;30;20435;-65
2023/02/05 10:12:49;;;;;;;27.73;7.35;;;;;;;6.72;100.00;103736.25;4703834;30;20484;-66
2023/02/05 10:15:20;;;;;;;27.58;6.55;;;;;;;6.73;100.00;103737.91;4702091;30;20049;-67
2023/02/05 10:18:00;;;;;;;28.80;6.43;;;;;;;6.70;100.00;103750.97;4702605;30;20061;-66
2023/02/05 10:20:57;;;;;;;34.10;7.60;;;;;;;6.70;100.00;103743.69;4692928;30;20052;-66
2023/02/05 10:23:29;;;;;;;30.75;7.32;;;;;;;6.75;100.00;103740.47;4675223;30;20093;-65
2023/02/05 10:26:19;;;;;;;32.30;8.13;;;;;;;6.80;100.00;103717.25;4701933;30;20063;-65
2023/02/05 10:29:11;;;;;;;34.30;8.10;;;;;;;6.88;100.00;103734.53;4713869;30;20065;-65
2023/02/05 10:31:43;;;;;;;36.08;7.32;;;;;;;6.88;100.00;103731.81;4703325;30;20495;-66
2023/02/05 10:34:38;;;;;;;34.13;8.48;;;;;;;6.87;100.00;103739.09;4717240;30;20051;-66
2023/02/05 10:37:17;;;;;;;32.80;7.90;;;;;;;6.90;100.00;103740.63;4703393;30;20061;-65
2023/02/05 10:39:46;;;;;;;28.23;8.13;;;;;;;6.89;100.00;103756.03;4718772;30;20072;-66
2023/02/05 10:42:38;;;;;;;32.85;7.57;;;;;;;6.87;100.00;103749.94;4702607;30;20065;-65
2023/02/05 10:45:17;;;;;;;28.90;7.32;;;;;;;6.84;100.00;103750.28;4718276;30;20064;-65
2023/02/05 10:48:15;;;;;;;27.02;6.72;;;;;;;6.87;100.00;103770.78;4717373;30;20128;-66
2023/02/05 10:51:03;;;;;;;33.65;7.53;;;;;;;6.85;100.00;103751.13;4703722;30;20084;-66
2023/02/05 10:53:31;;;;;;;39.05;8.00;;;;;;;6.86;100.00;103756.38;4718446;30;20071;-66
2023/02/05 10:56:02;;;;;;;31.20;7.45;;;;;;;6.82;100.00;103745.03;4718218;30;20131;-66
2023/02/05 10:58:38;;;;;;;36.30;7.88;;;;;;;6.86;100.00;103747.41;4716734;30;20049;-65
2023/02/05 11:01:06;;;;;;;;;;;;;;;6.91;100.00;103762.16;4718196;30;20060;-65
2023/02/05 11:03:35;;;;;;;25.42;6.45;;;;;;;6.94;100.00;103747.41;4673998;30;19993;-66
2023/02/05 11:06:08;;;;;;;29.33;7.00;;;;;;;6.98;100.00;103755.03;4718688;30;20088;-66
2023/02/05 11:08:41;;;;;;;29.38;7.53;;;;;;;6.97;99.81;103771.44;4719112;30;20419;-66
2023/02/05 11:11:38;;;;;;;30.92;7.40;;;;;;;6.98;99.91;103767.72;4718629;30;20056;-65
2023/02/05 11:14:07;;;;;;;31.42;6.28;;;;;;;6.98;99.87;103765.88;4679900;30;20057;-66
2023/02/05 11:16:43;;;;;;;27.55;5.78;;;;;;;7.00;100.00;103766.53;4718916;30;20112;-66
2023/02/05 11:19:24;;;;;;;31.42;6.93;;;;;;;7.01;98.39;103759.25;4719182;30;20060;-67
2023/02/05 11:21:55;;;;;;;36.67;7.85;;;;;;;7.01;98.33;103767.38;4718636;30;20106;-66
2023/02/05 11:24:28;;;;;;;29.05;7.05;;;;;;;7.03;98.84;103759.94;4719215;30;20079;-66
2023/02/05 11:27:29;;;;;;;30.10;7.55;;;;;;;7.04;98.31;103761.59;4720653;30;20053;-66
2023/02/05 11:30:17;;;;;;;30.92;7.47;;;;;;;7.02;97.08;103779.91;4685381;30;20068;-65
2023/02/05 11:33:25;;;;;;;29.73;7.30;;;;;;;6.99;96.52;103769.41;4723827;30;20053;-66
2023/02/05 11:35:58;;;;;;;31.27;7.45;;;;;;;7.00;98.91;103771.97;4721647;30;20072;-65
2023/02/05 11:38:28;;;;;;;36.40;7.95;;;;;;;7.00;98.55;103776.53;4728593;30;20053;-66
2023/02/05 11:41:05;;;;;;;36.45;7.80;;;;;;;7.00;98.89;103771.13;4714913;30;20109;-66
2023/02/05 11:43:34;;;;;;;36.90;8.02;;;;;;;7.01;98.49;103778.22;4721132;30;20057;-66